sensor_id;sensor_type;location;lat;lon;timestamp;pressure;altitude;pressure_sealevel;temperature;humidity
75747;BME280;70632;52.232;21.038;2023-12-20T00:01:36;99428.38;;;5.46;89.84
75747;BME280;70632;52.232;21.038;2023-12-20T00:04:02;99430.72;;;5.51;90.28
75747;BME280;70632;52.232;21.038;2023-12-20T00:06:29;99417.16;;;5.52;89.99
75747;BME280;70632;52.232;21.038;2023-12-20T00:08:55;99418.13;;;5.51;90.15
75747;BME280;70632;52.232;21.038;2023-12-20T00:11:21;99414.59;;;5.51;90.33
75747;BME280;70632;52.232;21.038;2023-12-20T00:13:46;99415.97;;;5.56;89.62
75747;BME280;70632;52.232;21.038;2023-12-20T00:16:12;99411.44;;;5.57;90.32
75747;BME280;70632;52.232;21.038;2023-12-20T00:18:38;99407.63;;;5.48;90.00
75747;BME280;70632;52.232;21.038;2023-12-20T00:21:04;99413.19;;;5.45;90.73
75747;BME280;70632;52.232;21.038;2023-12-20T00:23:29;99415.69;;;5.48;90.76
75747;BME280;70632;52.232;21.038;2023-12-20T00:25:55;99412.28;;;5.57;90.22
75747;BME280;70632;52.232;21.038;2023-12-20T00:28:21;99405.41;;;5.53;89.98
75747;BME280;70632;52.232;21.038;2023-12-20T00:30:47;99410.06;;;5.51;89.96
75747;BME280;70632;52.232;21.038;2023-12-20T00:33:13;99406.16;;;5.55;89.81
75747;BME280;70632;52.232;21.038;2023-12-20T00:35:39;99396.16;;;5.57;89.64
75747;BME280;70632;52.232;21.038;2023-12-20T00:38:04;99397.63;;;5.61;90.31
75747;BME280;70632;52.232;21.038;2023-12-20T00:40:34;99402.63;;;5.55;90.18
75747;BME280;70632;52.232;21.038;2023-12-20T00:43:00;99411.69;;;5.54;90.04
75747;BME280;70632;52.232;21.038;2023-12-20T00:45:26;99404.13;;;5.59;89.83
75747;BME280;70632;52.232;21.038;2023-12-20T00:47:51;99393.59;;;5.56;90.38
75747;BME280;70632;52.232;21.038;2023-12-20T00:50:17;99386.50;;;5.55;90.13
75747;BME280;70632;52.232;21.038;2023-12-20T00:52:43;99395.19;;;5.58;89.61
75747;BME280;70632;52.232;21.038;2023-12-20T00:55:09;99385.94;;;5.62;89.59
75747;BME280;70632;52.232;21.038;2023-12-20T00:57:35;99385.41;;;5.57;90.14
75747;BME280;70632;52.232;21.038;2023-12-20T01:00:01;99385.41;;;5.57;90.02
75747;BME280;70632;52.232;21.038;2023-12-20T01:02:27;99388.97;;;5.58;90.00
75747;BME280;70632;52.232;21.038;2023-12-20T01:04:53;99387.97;;;5.59;90.07
75747;BME280;70632;52.232;21.038;2023-12-20T01:07:19;99382.97;;;5.54;89.97
75747;BME280;70632;52.232;21.038;2023-12-20T01:09:44;99382.72;;;5.57;90.39
75747;BME280;70632;52.232;21.038;2023-12-20T01:12:10;99386.78;;;5.63;90.21
75747;BME280;70632;52.232;21.038;2023-12-20T01:14:36;99381.75;;;5.58;90.34
75747;BME280;70632;52.232;21.038;2023-12-20T01:17:01;99383.59;;;5.58;90.50
75747;BME280;70632;52.232;21.038;2023-12-20T01:19:27;99377.22;;;5.59;90.09
75747;BME280;70632;52.232;21.038;2023-12-20T01:21:54;99379.16;;;5.57;90.96
75747;BME280;70632;52.232;21.038;2023-12-20T01:24:21;99377.47;;;5.56;90.68
75747;BME280;70632;52.232;21.038;2023-12-20T01:26:46;99372.84;;;5.58;90.99
75747;BME280;70632;52.232;21.038;2023-12-20T01:29:12;99361.09;;;5.59;90.58
75747;BME280;70632;52.232;21.038;2023-12-20T01:31:39;99371.94;;;5.57;91.50
75747;BME280;70632;52.232;21.038;2023-12-20T01:34:06;99369.69;;;5.64;91.16
75747;BME280;70632;52.232;21.038;2023-12-20T01:36:32;99369.91;;;5.61;91.03
75747;BME280;70632;52.232;21.038;2023-12-20T01:38:58;99348.16;;;5.64;90.38
75747;BME280;70632;52.232;21.038;2023-12-20T01:41:23;99347.75;;;5.57;90.18
75747;BME280;70632;52.232;21.038;2023-12-20T01:43:49;99364.97;;;5.55;90.28
75747;BME280;70632;52.232;21.038;2023-12-20T01:46:15;99354.97;;;5.57;90.52
75747;BME280;70632;52.232;21.038;2023-12-20T01:48:41;99345.47;;;5.64;90.70
75747;BME280;70632;52.232;21.038;2023-12-20T01:51:07;99370.16;;;5.58;90.67
75747;BME280;70632;52.232;21.038;2023-12-20T01:53:34;99341.53;;;5.57;90.79
75747;BME280;70632;52.232;21.038;2023-12-20T01:56:00;99340.09;;;5.64;90.21
75747;BME280;70632;52.232;21.038;2023-12-20T01:58:27;99339.69;;;5.57;90.27
75747;BME280;70632;52.232;21.038;2023-12-20T02:00:53;99345.22;;;5.56;90.73
75747;BME280;70632;52.232;21.038;2023-12-20T02:03:20;99333.09;;;5.61;90.19
75747;BME280;70632;52.232;21.038;2023-12-20T02:05:47;99344.97;;;5.59;90.33
75747;BME280;70632;52.232;21.038;2023-12-20T02:08:13;99334.31;;;5.57;90.33
75747;BME280;70632;52.232;21.038;2023-12-20T02:10:39;99336.16;;;5.57;89.88
75747;BME280;70632;52.232;21.038;2023-12-20T02:13:06;99332.50;;;5.58;89.60
75747;BME280;70632;52.232;21.038;2023-12-20T02:15:32;99328.25;;;5.67;88.49
75747;BME280;70632;52.232;21.038;2023-12-20T02:17:58;99326.41;;;5.67;88.33
75747;BME280;70632;52.232;21.038;2023-12-20T02:20:24;99325.91;;;5.62;89.08
75747;BME280;70632;52.232;21.038;2023-12-20T02:22:50;99321.75;;;5.58;89.56
75747;BME280;70632;52.232;21.038;2023-12-20T02:25:15;99317.44;;;5.55;88.90
75747;BME280;70632;52.232;21.038;2023-12-20T02:27:41;99324.91;;;5.52;88.95
75747;BME280;70632;52.232;21.038;2023-12-20T02:30:08;99322.97;;;5.54;89.46
75747;BME280;70632;52.232;21.038;2023-12-20T02:32:34;99313.28;;;5.51;89.17
75747;BME280;70632;52.232;21.038;2023-12-20T02:35:00;99314.75;;;5.55;89.05
75747;BME280;70632;52.232;21.038;2023-12-20T02:37:26;99289.94;;;5.52;87.95
75747;BME280;70632;52.232;21.038;2023-12-20T02:39:51;99305.94;;;5.53;89.37
75747;BME280;70632;52.232;21.038;2023-12-20T02:42:17;99302.28;;;5.54;88.75
75747;BME280;70632;52.232;21.038;2023-12-20T02:44:42;99294.13;;;5.56;88.64
75747;BME280;70632;52.232;21.038;2023-12-20T02:47:08;99299.50;;;5.56;87.77
75747;BME280;70632;52.232;21.038;2023-12-20T02:49:34;99292.66;;;5.63;86.64
75747;BME280;70632;52.232;21.038;2023-12-20T02:52:00;99302.19;;;5.56;86.96
75747;BME280;70632;52.232;21.038;2023-12-20T02:54:25;99291.44;;;5.56;87.53
75747;BME280;70632;52.232;21.038;2023-12-20T02:56:51;99285.69;;;5.60;86.95
75747;BME280;70632;52.232;21.038;2023-12-20T02:59:17;99282.38;;;5.57;87.51
75747;BME280;70632;52.232;21.038;2023-12-20T03:01:44;99281.41;;;5.58;87.12
75747;BME280;70632;52.232;21.038;2023-12-20T03:04:11;99287.16;;;5.64;86.77
75747;BME280;70632;52.232;21.038;2023-12-20T03:06:36;99288.28;;;5.62;87.70
75747;BME280;70632;52.232;21.038;2023-12-20T03:09:02;99294.84;;;5.58;86.96
75747;BME280;70632;52.232;21.038;2023-12-20T03:11:28;99281.16;;;5.61;86.77
75747;BME280;70632;52.232;21.038;2023-12-20T03:13:57;99282.75;;;5.63;87.01
75747;BME280;70632;52.232;21.038;2023-12-20T03:16:23;99286.91;;;5.68;86.85
75747;BME280;70632;52.232;21.038;2023-12-20T03:18:49;99286.44;;;5.62;87.13
75747;BME280;70632;52.232;21.038;2023-12-20T03:21:15;99272.63;;;5.67;86.53
75747;BME280;70632;52.232;21.038;2023-12-20T03:23:41;99282.06;;;5.73;86.36
75747;BME280;70632;52.232;21.038;2023-12-20T03:26:07;99289.28;;;5.72;86.28
75747;BME280;70632;52.232;21.038;2023-12-20T03:28:33;99301.00;;;5.71;87.11
75747;BME280;70632;52.232;21.038;2023-12-20T03:31:00;99293.19;;;5.68;86.98
75747;BME280;70632;52.232;21.038;2023-12-20T03:33:25;99286.69;;;5.71;86.87
75747;BME280;70632;52.232;21.038;2023-12-20T03:35:51;99275.56;;;5.64;87.78
75747;BME280;70632;52.232;21.038;2023-12-20T03:38:17;99280.69;;;5.67;86.41
75747;BME280;70632;52.232;21.038;2023-12-20T03:40:43;99277.16;;;5.67;87.60
75747;BME280;70632;52.232;21.038;2023-12-20T03:43:08;99274.34;;;5.68;88.11
75747;BME280;70632;52.232;21.038;2023-12-20T03:45:34;99273.25;;;5.71;86.90
75747;BME280;70632;52.232;21.038;2023-12-20T03:48:00;99266.03;;;5.71;87.00
75747;BME280;70632;52.232;21.038;2023-12-20T03:50:26;99278.50;;;5.72;87.14
75747;BME280;70632;52.232;21.038;2023-12-20T03:52:52;99282.53;;;5.78;86.39
75747;BME280;70632;52.232;21.038;2023-12-20T03:55:18;99274.00;;;5.73;87.03
75747;BME280;70632;52.232;21.038;2023-12-20T03:57:44;99282.16;;;5.71;87.09
75747;BME280;70632;52.232;21.038;2023-12-20T04:00:10;99273.41;;;5.80;87.35
75747;BME280;70632;52.232;21.038;2023-12-20T04:02:37;99271.03;;;5.76;87.40
75747;BME280;70632;52.232;21.038;2023-12-20T04:05:07;99259.22;;;5.78;87.55
75747;BME280;70632;52.232;21.038;2023-12-20T04:07:33;99267.28;;;5.78;87.61
75747;BME280;70632;52.232;21.038;2023-12-20T04:09:59;99269.72;;;5.81;87.35
75747;BME280;70632;52.232;21.038;2023-12-20T04:12:24;99277.91;;;5.80;87.43
75747;BME280;70632;52.232;21.038;2023-12-20T04:14:50;99278.78;;;5.80;87.63
75747;BME280;70632;52.232;21.038;2023-12-20T04:17:16;99262.38;;;5.83;87.89
75747;BME280;70632;52.232;21.038;2023-12-20T04:19:42;99277.03;;;5.79;88.19
75747;BME280;70632;52.232;21.038;2023-12-20T04:22:08;99286.09;;;5.78;87.81
75747;BME280;70632;52.232;21.038;2023-12-20T04:24:34;99279.50;;;5.82;87.35
75747;BME280;70632;52.232;21.038;2023-12-20T04:27:00;99260.91;;;5.79;87.40
75747;BME280;70632;52.232;21.038;2023-12-20T04:29:26;99265.44;;;5.79;87.40
75747;BME280;70632;52.232;21.038;2023-12-20T04:31:52;99271.66;;;5.79;86.87
75747;BME280;70632;52.232;21.038;2023-12-20T04:34:18;99269.72;;;5.81;87.16
75747;BME280;70632;52.232;21.038;2023-12-20T04:36:43;99263.72;;;5.78;88.18
75747;BME280;70632;52.232;21.038;2023-12-20T04:39:11;99265.31;;;5.80;87.64
75747;BME280;70632;52.232;21.038;2023-12-20T04:41:36;99271.19;;;5.85;87.60
75747;BME280;70632;52.232;21.038;2023-12-20T04:44:02;99277.53;;;5.73;87.87
75747;BME280;70632;52.232;21.038;2023-12-20T04:46:28;99287.31;;;5.74;88.18
75747;BME280;70632;52.232;21.038;2023-12-20T04:48:54;99280.00;;;5.76;88.06
75747;BME280;70632;52.232;21.038;2023-12-20T04:51:19;99263.13;;;5.74;87.88
75747;BME280;70632;52.232;21.038;2023-12-20T04:53:45;99284.97;;;5.70;88.12
75747;BME280;70632;52.232;21.038;2023-12-20T04:56:11;99269.56;;;5.72;88.08
75747;BME280;70632;52.232;21.038;2023-12-20T04:58:37;99275.69;;;5.74;87.33
75747;BME280;70632;52.232;21.038;2023-12-20T05:01:04;99277.78;;;5.70;88.02
75747;BME280;70632;52.232;21.038;2023-12-20T05:03:31;99272.41;;;5.70;87.78
75747;BME280;70632;52.232;21.038;2023-12-20T05:05:56;99261.38;;;5.73;87.44
75747;BME280;70632;52.232;21.038;2023-12-20T05:08:22;99263.72;;;5.78;87.50
75747;BME280;70632;52.232;21.038;2023-12-20T05:10:48;99267.88;;;5.71;87.77
75747;BME280;70632;52.232;21.038;2023-12-20T05:13:14;99265.28;;;5.69;88.47
75747;BME280;70632;52.232;21.038;2023-12-20T05:15:39;99268.50;;;5.74;87.96
75747;BME280;70632;52.232;21.038;2023-12-20T05:18:05;99252.59;;;5.71;87.69
75747;BME280;70632;52.232;21.038;2023-12-20T05:20:31;99247.22;;;5.71;87.79
75747;BME280;70632;52.232;21.038;2023-12-20T05:22:57;99253.06;;;5.65;87.95
75747;BME280;70632;52.232;21.038;2023-12-20T05:25:23;99260.28;;;5.64;88.13
75747;BME280;70632;52.232;21.038;2023-12-20T05:27:48;99253.69;;;5.69;87.91
75747;BME280;70632;52.232;21.038;2023-12-20T05:30:14;99246.47;;;5.69;88.27
75747;BME280;70632;52.232;21.038;2023-12-20T05:32:40;99249.66;;;5.74;88.66
75747;BME280;70632;52.232;21.038;2023-12-20T05:35:06;99244.28;;;5.74;88.00
75747;BME280;70632;52.232;21.038;2023-12-20T05:37:32;99248.78;;;5.74;87.75
75747;BME280;70632;52.232;21.038;2023-12-20T05:39:58;99234.22;;;5.65;88.22
75747;BME280;70632;52.232;21.038;2023-12-20T05:42:24;99249.53;;;5.76;88.29
75747;BME280;70632;52.232;21.038;2023-12-20T05:44:50;99251.72;;;5.71;88.37
75747;BME280;70632;52.232;21.038;2023-12-20T05:47:16;99236.56;;;5.70;88.20
75747;BME280;70632;52.232;21.038;2023-12-20T05:49:43;99253.44;;;5.72;88.16
75747;BME280;70632;52.232;21.038;2023-12-20T05:52:09;99240.59;;;5.64;88.11
75747;BME280;70632;52.232;21.038;2023-12-20T05:54:35;99245.00;;;5.65;88.21
75747;BME280;70632;52.232;21.038;2023-12-20T05:57:01;99243.78;;;5.69;88.21
75747;BME280;70632;52.232;21.038;2023-12-20T05:59:26;99241.47;;;5.64;88.38
75747;BME280;70632;52.232;21.038;2023-12-20T06:01:52;99241.09;;;5.58;88.93
75747;BME280;70632;52.232;21.038;2023-12-20T06:04:18;99235.94;;;5.55;89.12
75747;BME280;70632;52.232;21.038;2023-12-20T06:06:44;99232.03;;;5.59;88.75
75747;BME280;70632;52.232;21.038;2023-12-20T06:09:10;99241.56;;;5.63;88.72
75747;BME280;70632;52.232;21.038;2023-12-20T06:11:36;99251.59;;;5.61;88.11
75747;BME280;70632;52.232;21.038;2023-12-20T06:14:02;99243.03;;;5.67;87.51
75747;BME280;70632;52.232;21.038;2023-12-20T06:16:27;99253.53;;;5.59;88.54
75747;BME280;70632;52.232;21.038;2023-12-20T06:18:53;99249.38;;;5.55;88.58
75747;BME280;70632;52.232;21.038;2023-12-20T06:21:19;99245.00;;;5.54;88.46
75747;BME280;70632;52.232;21.038;2023-12-20T06:23:45;99253.06;;;5.54;88.81
75747;BME280;70632;52.232;21.038;2023-12-20T06:26:11;99252.81;;;5.57;87.74
75747;BME280;70632;52.232;21.038;2023-12-20T06:28:36;99253.91;;;5.54;88.80
75747;BME280;70632;52.232;21.038;2023-12-20T06:31:03;99246.69;;;5.55;88.04
75747;BME280;70632;52.232;21.038;2023-12-20T06:33:31;99245.31;;;5.49;88.32
75747;BME280;70632;52.232;21.038;2023-12-20T06:35:58;99254.50;;;5.47;88.12
75747;BME280;70632;52.232;21.038;2023-12-20T06:38:23;99241.56;;;5.52;88.30
75747;BME280;70632;52.232;21.038;2023-12-20T06:40:49;99249.09;;;5.47;88.50
75747;BME280;70632;52.232;21.038;2023-12-20T06:43:16;99247.53;;;5.44;88.70
75747;BME280;70632;52.232;21.038;2023-12-20T06:45:44;99248.16;;;5.48;88.63
75747;BME280;70632;52.232;21.038;2023-12-20T06:48:10;99252.31;;;5.52;88.98
75747;BME280;70632;52.232;21.038;2023-12-20T06:50:39;99253.38;;;5.49;88.39
75747;BME280;70632;52.232;21.038;2023-12-20T06:53:06;99252.81;;;5.57;88.41
75747;BME280;70632;52.232;21.038;2023-12-20T06:55:34;99248.88;;;5.50;87.52
75747;BME280;70632;52.232;21.038;2023-12-20T06:58:01;99250.84;;;5.48;88.51
75747;BME280;70632;52.232;21.038;2023-12-20T07:00:27;99252.78;;;5.46;89.08
75747;BME280;70632;52.232;21.038;2023-12-20T07:02:53;99253.16;;;5.52;88.16
75747;BME280;70632;52.232;21.038;2023-12-20T07:05:19;99247.69;;;5.54;88.72
75747;BME280;70632;52.232;21.038;2023-12-20T07:07:46;99245.34;;;5.60;87.59
75747;BME280;70632;52.232;21.038;2023-12-20T07:10:13;99252.06;;;5.55;87.99
75747;BME280;70632;52.232;21.038;2023-12-20T07:12:41;99249.16;;;5.58;88.26
75747;BME280;70632;52.232;21.038;2023-12-20T07:15:07;99256.34;;;5.57;87.87
75747;BME280;70632;52.232;21.038;2023-12-20T07:17:33;99258.28;;;5.55;88.07
75747;BME280;70632;52.232;21.038;2023-12-20T07:20:00;99245.84;;;5.54;88.26
75747;BME280;70632;52.232;21.038;2023-12-20T07:22:30;99252.06;;;5.55;88.53
75747;BME280;70632;52.232;21.038;2023-12-20T07:24:58;99261.72;;;5.57;88.72
75747;BME280;70632;52.232;21.038;2023-12-20T07:27:24;99259.16;;;5.56;87.92
75747;BME280;70632;52.232;21.038;2023-12-20T07:29:50;99267.47;;;5.53;88.60
75747;BME280;70632;52.232;21.038;2023-12-20T07:32:15;99261.25;;;5.63;88.34
75747;BME280;70632;52.232;21.038;2023-12-20T07:34:41;99257.97;;;5.60;88.48
75747;BME280;70632;52.232;21.038;2023-12-20T07:37:07;99250.13;;;5.57;88.30
75747;BME280;70632;52.232;21.038;2023-12-20T07:39:36;99260.75;;;5.58;88.55
75747;BME280;70632;52.232;21.038;2023-12-20T07:42:01;99243.63;;;5.59;88.30
75747;BME280;70632;52.232;21.038;2023-12-20T07:44:27;99250.97;;;5.57;88.86
75747;BME280;70632;52.232;21.038;2023-12-20T07:46:53;99255.38;;;5.58;88.17
75747;BME280;70632;52.232;21.038;2023-12-20T07:49:20;99263.81;;;5.65;88.57
75747;BME280;70632;52.232;21.038;2023-12-20T07:51:46;99260.38;;;5.63;88.22
75747;BME280;70632;52.232;21.038;2023-12-20T07:54:12;99259.66;;;5.61;88.61
75747;BME280;70632;52.232;21.038;2023-12-20T07:56:37;99251.38;;;5.64;88.14
75747;BME280;70632;52.232;21.038;2023-12-20T07:59:05;99253.44;;;5.60;88.29
75747;BME280;70632;52.232;21.038;2023-12-20T08:01:31;99250.25;;;5.67;88.48
75747;BME280;70632;52.232;21.038;2023-12-20T08:03:57;99241.09;;;5.58;88.77
75747;BME280;70632;52.232;21.038;2023-12-20T08:06:22;99254.75;;;5.55;89.26
75747;BME280;70632;52.232;21.038;2023-12-20T08:08:49;99253.53;;;5.59;89.13
75747;BME280;70632;52.232;21.038;2023-12-20T08:11:15;99255.38;;;5.58;88.27
75747;BME280;70632;52.232;21.038;2023-12-20T08:13:41;99248.16;;;5.59;88.95
75747;BME280;70632;52.232;21.038;2023-12-20T08:16:06;99245.72;;;5.56;88.32
75747;BME280;70632;52.232;21.038;2023-12-20T08:18:32;99252.91;;;5.55;88.33
75747;BME280;70632;52.232;21.038;2023-12-20T08:20:59;99248.41;;;5.56;88.19
75747;BME280;70632;52.232;21.038;2023-12-20T08:23:26;99245.47;;;5.59;87.94
75747;BME280;70632;52.232;21.038;2023-12-20T08:25:51;99246.94;;;5.52;88.01
75747;BME280;70632;52.232;21.038;2023-12-20T08:28:20;99247.03;;;5.50;88.63
75747;BME280;70632;52.232;21.038;2023-12-20T08:30:46;99243.38;;;5.51;88.46
75747;BME280;70632;52.232;21.038;2023-12-20T08:33:12;99241.41;;;5.53;88.50
75747;BME280;70632;52.232;21.038;2023-12-20T08:35:41;99239.59;;;5.54;87.99
75747;BME280;70632;52.232;21.038;2023-12-20T08:38:07;99238.13;;;5.61;88.24
75747;BME280;70632;52.232;21.038;2023-12-20T08:40:32;99244.88;;;5.67;87.27
75747;BME280;70632;52.232;21.038;2023-12-20T08:43:01;99242.41;;;5.63;88.10
75747;BME280;70632;52.232;21.038;2023-12-20T08:45:27;99244.09;;;5.53;88.69
75747;BME280;70632;52.232;21.038;2023-12-20T08:47:54;99248.41;;;5.56;88.49
75747;BME280;70632;52.232;21.038;2023-12-20T08:50:21;99253.16;;;5.52;88.01
75747;BME280;70632;52.232;21.038;2023-12-20T08:52:47;99252.53;;;5.49;88.44
75747;BME280;70632;52.232;21.038;2023-12-20T08:55:13;99247.16;;;5.49;88.49
75747;BME280;70632;52.232;21.038;2023-12-20T08:57:40;99252.31;;;5.52;88.44
75747;BME280;70632;52.232;21.038;2023-12-20T09:00:06;99240.19;;;5.46;88.25
75747;BME280;70632;52.232;21.038;2023-12-20T09:02:33;99245.56;;;5.46;88.50
75747;BME280;70632;52.232;21.038;2023-12-20T09:05:02;99234.81;;;5.46;88.22
75747;BME280;70632;52.232;21.038;2023-12-20T09:07:28;99231.50;;;5.42;88.85
75747;BME280;70632;52.232;21.038;2023-12-20T09:09:56;99242.03;;;5.46;88.59
75747;BME280;70632;52.232;21.038;2023-12-20T09:12:22;99236.19;;;5.52;88.39
75747;BME280;70632;52.232;21.038;2023-12-20T09:14:49;99237.03;;;5.52;88.18
75747;BME280;70632;52.232;21.038;2023-12-20T09:17:16;99226.13;;;5.42;89.01
75747;BME280;70632;52.232;21.038;2023-12-20T09:19:43;99227.34;;;5.38;88.66
75747;BME280;70632;52.232;21.038;2023-12-20T09:22:12;99226.66;;;5.48;88.31
75747;BME280;70632;52.232;21.038;2023-12-20T09:24:38;99231.28;;;5.46;88.73
75747;BME280;70632;52.232;21.038;2023-12-20T09:27:06;99208.31;;;5.41;88.94
75747;BME280;70632;52.232;21.038;2023-12-20T09:29:32;99214.53;;;5.42;88.91
75747;BME280;70632;52.232;21.038;2023-12-20T09:31:58;99206.09;;;5.47;88.87
75747;BME280;70632;52.232;21.038;2023-12-20T09:34:24;99199.88;;;5.46;89.52
75747;BME280;70632;52.232;21.038;2023-12-20T09:36:51;99198.16;;;5.45;89.28
75747;BME280;70632;52.232;21.038;2023-12-20T09:39:20;99188.28;;;5.46;88.76
75747;BME280;70632;52.232;21.038;2023-12-20T09:42:01;99204.50;;;5.55;88.87
75747;BME280;70632;52.232;21.038;2023-12-20T09:44:27;99184.59;;;5.47;88.62
75747;BME280;70632;52.232;21.038;2023-12-20T09:46:55;99180.69;;;5.51;89.03
75747;BME280;70632;52.232;21.038;2023-12-20T09:49:22;99216.00;;;5.46;89.18
75747;BME280;70632;52.232;21.038;2023-12-20T09:51:50;99190.06;;;5.45;89.04
75747;BME280;70632;52.232;21.038;2023-12-20T09:54:18;99191.91;;;5.44;88.92
75747;BME280;70632;52.232;21.038;2023-12-20T09:56:44;99187.16;;;5.48;89.15
75747;BME280;70632;52.232;21.038;2023-12-20T09:59:10;99200.72;;;5.47;88.76
75747;BME280;70632;52.232;21.038;2023-12-20T10:01:40;99176.53;;;5.47;89.30
75747;BME280;70632;52.232;21.038;2023-12-20T10:04:08;99188.13;;;5.47;89.34
75747;BME280;70632;52.232;21.038;2023-12-20T10:06:41;99197.28;;;5.44;89.54
75747;BME280;70632;52.232;21.038;2023-12-20T10:09:06;99174.56;;;5.49;89.47
75747;BME280;70632;52.232;21.038;2023-12-20T10:11:35;99180.06;;;5.47;88.81
75747;BME280;70632;52.232;21.038;2023-12-20T10:14:00;99183.16;;;5.54;88.79
75747;BME280;70632;52.232;21.038;2023-12-20T10:16:27;99178.38;;;5.46;89.23
75747;BME280;70632;52.232;21.038;2023-12-20T10:18:54;99180.56;;;5.52;88.70
75747;BME280;70632;52.232;21.038;2023-12-20T10:21:20;99172.88;;;5.59;88.64
75747;BME280;70632;52.232;21.038;2023-12-20T10:23:46;99169.72;;;5.54;88.84
75747;BME280;70632;52.232;21.038;2023-12-20T10:26:26;99172.13;;;5.57;88.63
75747;BME280;70632;52.232;21.038;2023-12-20T10:29:00;99170.66;;;5.53;89.13
75747;BME280;70632;52.232;21.038;2023-12-20T10:31:34;99178.13;;;5.49;89.34
75747;BME280;70632;52.232;21.038;2023-12-20T10:34:02;99163.19;;;5.45;88.57
75747;BME280;70632;52.232;21.038;2023-12-20T10:36:32;99180.56;;;5.52;88.53
75747;BME280;70632;52.232;21.038;2023-12-20T10:38:59;99152.22;;;5.48;88.79
75747;BME280;70632;52.232;21.038;2023-12-20T10:41:32;99155.88;;;5.47;88.24
75747;BME280;70632;52.232;21.038;2023-12-20T10:44:01;99154.06;;;5.48;88.96
75747;BME280;70632;52.232;21.038;2023-12-20T10:46:28;99156.25;;;5.54;88.46
75747;BME280;70632;52.232;21.038;2023-12-20T10:48:56;99161.13;;;5.49;89.41
75747;BME280;70632;52.232;21.038;2023-12-20T10:51:22;99159.28;;;5.49;88.53
75747;BME280;70632;52.232;21.038;2023-12-20T10:53:50;99158.22;;;5.52;89.01
75747;BME280;70632;52.232;21.038;2023-12-20T10:56:17;99159.69;;;5.56;89.08
75747;BME280;70632;52.232;21.038;2023-12-20T10:58:45;99158.69;;;5.57;88.98
75747;BME280;70632;52.232;21.038;2023-12-20T11:01:13;99160.66;;;5.55;88.34
75747;BME280;70632;52.232;21.038;2023-12-20T11:03:46;99162.63;;;5.64;88.31
75747;BME280;70632;52.232;21.038;2023-12-20T11:08:59;99137.91;;;5.59;87.95
75747;BME280;70632;52.232;21.038;2023-12-20T11:11:40;99133.75;;;5.55;88.41
75747;BME280;70632;52.232;21.038;2023-12-20T11:14:23;99131.91;;;5.55;88.71
75747;BME280;70632;52.232;21.038;2023-12-20T11:17:05;99121.91;;;5.57;88.21
75747;BME280;70632;52.232;21.038;2023-12-20T11:19:30;99122.91;;;5.56;87.75
75747;BME280;70632;52.232;21.038;2023-12-20T11:21:57;99113.00;;;5.57;88.23
75747;BME280;70632;52.232;21.038;2023-12-20T11:24:22;99108.13;;;5.62;87.73
75747;BME280;70632;52.232;21.038;2023-12-20T11:26:55;99096.97;;;5.55;87.91
75747;BME280;70632;52.232;21.038;2023-12-20T11:29:35;99100.91;;;5.62;87.79
75747;BME280;70632;52.232;21.038;2023-12-20T11:37:35;99100.88;;;5.51;88.43
75747;BME280;70632;52.232;21.038;2023-12-20T11:40:06;99096.38;;;5.52;88.78
75747;BME280;70632;52.232;21.038;2023-12-20T11:42:43;99100.03;;;5.51;88.86
75747;BME280;70632;52.232;21.038;2023-12-20T11:45:10;99092.47;;;5.56;88.36
75747;BME280;70632;52.232;21.038;2023-12-20T11:47:36;99086.00;;;5.58;87.71
75747;BME280;70632;52.232;21.038;2023-12-20T11:50:02;99088.78;;;5.57;89.40
75747;BME280;70632;52.232;21.038;2023-12-20T11:52:30;99084.63;;;5.53;88.32
75747;BME280;70632;52.232;21.038;2023-12-20T11:54:56;99078.28;;;5.54;89.20
75747;BME280;70632;52.232;21.038;2023-12-20T11:57:22;99078.28;;;5.54;88.76
75747;BME280;70632;52.232;21.038;2023-12-20T11:59:48;99070.47;;;5.51;88.93
75747;BME280;70632;52.232;21.038;2023-12-20T12:02:14;99075.72;;;5.52;88.12
75747;BME280;70632;52.232;21.038;2023-12-20T12:04:43;99058.97;;;5.49;88.90
75747;BME280;70632;52.232;21.038;2023-12-20T12:07:09;99067.16;;;5.47;88.77
75747;BME280;70632;52.232;21.038;2023-12-20T12:09:35;99067.03;;;5.49;88.93
75747;BME280;70632;52.232;21.038;2023-12-20T12:12:01;99056.41;;;5.47;88.31
75747;BME280;70632;52.232;21.038;2023-12-20T12:14:27;99068.03;;;5.48;88.11
75747;BME280;70632;52.232;21.038;2023-12-20T12:16:53;99066.56;;;5.43;88.84
75747;BME280;70632;52.232;21.038;2023-12-20T12:19:26;99057.50;;;5.44;87.89
75747;BME280;70632;52.232;21.038;2023-12-20T12:22:05;99062.66;;;5.48;87.25
75747;BME280;70632;52.232;21.038;2023-12-20T12:24:36;99057.50;;;5.44;88.12
75747;BME280;70632;52.232;21.038;2023-12-20T12:27:03;99039.91;;;5.40;87.49
75747;BME280;70632;52.232;21.038;2023-12-20T12:29:31;99055.34;;;5.50;87.27
75747;BME280;70632;52.232;21.038;2023-12-20T12:31:57;99046.66;;;5.46;87.24
75747;BME280;70632;52.232;21.038;2023-12-20T12:34:27;99067.53;;;5.42;86.79
75747;BME280;70632;52.232;21.038;2023-12-20T12:37:05;99047.13;;;5.40;86.43
75747;BME280;70632;52.232;21.038;2023-12-20T12:39:30;99042.88;;;5.37;85.47
75747;BME280;70632;52.232;21.038;2023-12-20T12:41:58;99044.69;;;5.37;85.49
75747;BME280;70632;52.232;21.038;2023-12-20T12:44:23;99039.31;;;5.37;86.26
75747;BME280;70632;52.232;21.038;2023-12-20T12:46:51;99027.84;;;5.46;85.11
75747;BME280;70632;52.232;21.038;2023-12-20T12:49:19;99037.84;;;5.33;84.58
75747;BME280;70632;52.232;21.038;2023-12-20T12:51:45;99052.16;;;5.33;86.19
75747;BME280;70632;52.232;21.038;2023-12-20T12:54:12;99041.88;;;5.38;85.88
75747;BME280;70632;52.232;21.038;2023-12-20T12:56:39;99050.53;;;5.31;85.77
75747;BME280;70632;52.232;21.038;2023-12-20T12:59:08;99045.44;;;5.28;86.97
75747;BME280;70632;52.232;21.038;2023-12-20T13:01:36;99046.91;;;5.32;86.72
75747;BME280;70632;52.232;21.038;2023-12-20T13:04:05;99032.00;;;5.28;87.60
75747;BME280;70632;52.232;21.038;2023-12-20T13:06:39;99024.16;;;5.24;85.39